createdAt,value
2019-04-05T00:05:22.226Z,97.10
2019-04-05T00:07:52.121Z,97.00
2019-04-05T00:10:22.163Z,97.00
2019-04-05T00:12:52.085Z,97.30
2019-04-05T00:15:21.984Z,97.00
2019-04-05T00:17:51.835Z,97.00
2019-04-05T00:20:21.748Z,97.00
2019-04-05T00:22:51.626Z,97.10
2019-04-05T00:25:21.719Z,97.10
2019-04-05T00:27:51.686Z,97.10
2019-04-05T00:30:21.682Z,97.20
2019-04-05T00:32:51.738Z,97.30
2019-04-05T00:35:21.666Z,97.40
2019-04-05T00:37:51.462Z,97.50
2019-04-05T00:40:21.238Z,97.60
2019-04-05T00:42:51.134Z,97.60
2019-04-05T00:45:28.170Z,97.70
2019-04-05T00:47:52.820Z,97.70
2019-04-05T00:50:22.650Z,97.70
2019-04-05T00:52:52.565Z,97.70
2019-04-05T00:55:22.529Z,97.60
2019-04-05T00:57:52.648Z,97.60
2019-04-05T01:00:22.815Z,97.60
2019-04-05T01:02:52.745Z,97.50
2019-04-05T01:05:22.694Z,97.50
2019-04-05T01:07:52.697Z,97.50
2019-04-05T01:10:22.588Z,97.60
2019-04-05T01:12:52.662Z,97.60
2019-04-05T01:15:22.492Z,97.60
2019-04-05T01:17:53.278Z,97.70
2019-04-05T01:20:25.221Z,97.70
2019-04-05T01:22:55.487Z,97.70
2019-04-05T01:25:26.526Z,97.80
2019-04-05T01:27:56.401Z,97.90
2019-04-05T01:30:26.441Z,98.00
2019-04-05T01:32:56.427Z,98.00
2019-04-05T01:35:26.214Z,98.00
2019-04-05T01:37:56.586Z,98.00
2019-04-05T01:40:29.023Z,98.10
2019-04-05T01:42:59.521Z,98.10
2019-04-05T01:45:29.706Z,98.20
2019-04-05T01:47:59.663Z,98.20
2019-04-05T01:50:29.940Z,98.20
2019-04-05T01:53:00.140Z,98.30
2019-04-05T01:55:30.053Z,98.30
2019-04-05T01:57:59.913Z,98.30
2019-04-05T02:00:29.841Z,98.40
2019-04-05T02:02:59.782Z,98.40
2019-04-05T02:05:29.668Z,98.40
2019-04-05T02:07:59.764Z,98.50
2019-04-05T02:10:29.888Z,98.40
2019-04-05T02:12:59.900Z,98.50
2019-04-05T02:15:32.721Z,98.60
2019-04-05T02:18:02.522Z,98.60
2019-04-05T02:20:32.419Z,98.60
2019-04-05T02:23:02.454Z,98.60
2019-04-05T02:25:32.466Z,98.60
2019-04-05T02:28:02.657Z,98.60
2019-04-05T02:30:32.743Z,98.60
2019-04-05T02:33:02.717Z,98.60
2019-04-05T02:35:32.647Z,98.60
2019-04-05T02:38:02.695Z,98.60
2019-04-05T02:40:35.256Z,98.70
2019-04-05T02:43:07.148Z,98.70
2019-04-05T02:45:40.085Z,98.70
2019-04-05T02:48:12.456Z,98.80
2019-04-05T02:50:47.029Z,98.70
2019-04-05T02:53:18.915Z,98.80
2019-04-05T02:55:49.920Z,98.80
2019-04-05T02:58:21.958Z,98.80
2019-04-05T03:07:50.703Z,98.80
2019-04-05T03:10:56.626Z,98.70
2019-04-05T03:13:28.875Z,98.70
2019-04-05T03:16:02.317Z,98.70
2019-04-05T03:18:34.070Z,98.70
2019-04-05T03:21:07.568Z,98.70
2019-04-05T03:23:40.943Z,98.80
2019-04-05T03:26:13.891Z,98.80
2019-04-05T03:28:47.370Z,98.80
2019-04-05T03:31:23.957Z,98.90
2019-04-05T03:33:49.080Z,98.90
2019-04-05T03:36:19.417Z,98.90
2019-04-05T03:38:49.879Z,98.90
2019-04-05T03:41:20.149Z,99.00
2019-04-05T03:44:09.347Z,99.10
2019-04-05T03:46:55.563Z,99.20
2019-04-05T03:50:03.445Z,99.20
2019-04-05T03:52:33.587Z,99.20
2019-04-05T03:55:04.132Z,99.30
2019-04-05T03:57:34.016Z,99.40
2019-04-05T04:00:04.574Z,99.50
2019-04-05T04:02:34.526Z,99.50
2019-04-05T04:05:04.730Z,99.50
2019-04-05T04:07:34.624Z,99.60
2019-04-05T04:10:04.759Z,99.60
2019-04-05T04:12:34.705Z,99.60
2019-04-05T04:15:14.920Z,99.70
2019-04-05T04:17:46.632Z,99.70
2019-04-05T04:20:32.919Z,99.70
2019-04-05T04:23:04.050Z,99.80
2019-04-05T04:25:34.130Z,99.90
2019-04-05T04:28:04.114Z,99.80
2019-04-05T04:30:36.101Z,99.80
2019-04-05T04:33:07.634Z,99.90
2019-04-05T04:35:41.245Z,99.90
2019-04-05T04:38:11.146Z,99.90
2019-04-05T04:40:45.926Z,99.90
2019-04-05T04:43:16.547Z,99.90
2019-04-05T04:45:46.557Z,99.90
2019-04-05T04:48:17.418Z,99.90
2019-04-05T04:50:48.193Z,99.90
2019-04-05T04:53:18.482Z,99.90
2019-04-05T04:55:48.754Z,99.90
2019-04-05T04:58:18.556Z,99.90
2019-04-05T05:00:48.827Z,99.90
2019-04-05T05:03:18.881Z,99.90
2019-04-05T05:05:48.788Z,99.90
2019-04-05T05:08:18.861Z,99.90
2019-04-05T05:10:48.820Z,99.90
2019-04-05T05:13:19.459Z,99.90
2019-04-05T05:15:50.176Z,99.90
2019-04-05T05:18:20.219Z,99.90
2019-04-05T05:20:50.234Z,99.90
2019-04-05T05:23:20.373Z,99.90
2019-04-05T05:25:52.016Z,99.90
2019-04-05T05:28:22.327Z,99.90
2019-04-05T05:30:52.256Z,99.90
2019-04-05T05:33:22.114Z,99.90
2019-04-05T05:35:52.478Z,99.90
2019-04-05T05:38:22.538Z,99.90
2019-04-05T05:40:52.650Z,99.90
2019-04-05T05:43:24.010Z,99.90
2019-04-05T05:45:54.129Z,99.90
2019-04-05T05:48:23.929Z,99.90
2019-04-05T05:50:53.874Z,99.90
2019-04-05T05:53:24.654Z,99.90
2019-04-05T05:55:54.542Z,99.90
2019-04-05T05:58:25.866Z,99.90
2019-04-05T06:00:55.687Z,99.90
2019-04-05T06:03:25.504Z,99.90
2019-04-05T06:06:04.166Z,99.90
2019-04-05T06:08:29.028Z,99.90
2019-04-05T06:10:58.227Z,99.90
2019-04-05T06:13:27.994Z,99.90
2019-04-05T06:15:57.920Z,99.90
2019-04-05T06:18:27.789Z,99.90
2019-04-05T06:20:57.533Z,99.90
2019-04-05T06:23:33.455Z,99.90
2019-04-05T06:25:58.826Z,99.90
2019-04-05T06:28:28.871Z,99.90
2019-04-05T06:30:58.655Z,99.90
2019-04-05T06:33:31.884Z,99.90
2019-04-05T06:36:00.000Z,99.90
2019-04-05T06:38:29.864Z,99.90
2019-04-05T06:40:59.823Z,99.90
2019-04-05T06:43:29.658Z,99.90
2019-04-05T06:45:59.623Z,99.70
2019-04-05T06:48:29.861Z,99.60
2019-04-05T06:51:00.922Z,99.60
2019-04-05T06:53:32.195Z,99.60
2019-04-05T06:56:01.903Z,99.60
2019-04-05T06:58:31.789Z,99.50
2019-04-05T07:01:01.642Z,99.30
2019-04-05T07:03:31.448Z,99.30
2019-04-05T07:06:01.231Z,99.20
2019-04-05T07:08:31.200Z,99.00
2019-04-05T07:11:01.036Z,98.80
2019-04-05T07:13:31.098Z,98.70
2019-04-05T07:16:00.876Z,98.50
2019-04-05T07:18:35.658Z,98.40
2019-04-05T07:21:02.214Z,98.40
2019-04-05T07:23:31.940Z,98.40
2019-04-05T07:26:01.694Z,98.40
2019-04-05T07:28:31.522Z,98.30
2019-04-05T07:31:01.299Z,98.20
2019-04-05T07:33:31.136Z,98.50
2019-04-05T07:36:03.348Z,98.20
2019-04-05T07:38:32.505Z,98.30
2019-04-05T07:41:02.312Z,98.10
2019-04-05T07:43:32.117Z,98.00
2019-04-05T07:46:01.970Z,97.90
2019-04-05T07:48:43.743Z,97.90
2019-04-05T07:51:03.442Z,97.90
2019-04-05T07:53:33.274Z,97.90
2019-04-05T07:56:03.654Z,98.10
2019-04-05T07:58:33.462Z,97.60
2019-04-05T08:01:05.734Z,97.60
2019-04-05T08:03:35.730Z,97.40
2019-04-05T08:06:05.807Z,97.40
2019-04-05T08:09:08.774Z,97.30
2019-04-05T08:11:40.540Z,97.00
2019-04-05T08:14:11.975Z,97.10
2019-04-05T08:16:41.890Z,97.20
2019-04-05T08:19:11.815Z,96.60
2019-04-05T08:21:41.728Z,96.20
2019-04-05T08:24:11.528Z,95.90
2019-04-05T08:26:41.294Z,95.80
2019-04-05T08:29:11.286Z,96.00
2019-04-05T08:31:41.137Z,96.10
2019-04-05T08:34:11.275Z,96.50
2019-04-05T08:36:41.468Z,96.40
2019-04-05T08:39:34.259Z,96.50
2019-04-05T08:42:03.162Z,96.40
2019-04-05T08:44:33.192Z,96.20
2019-04-05T08:50:37.459Z,95.70
2019-04-05T08:53:07.302Z,95.40
2019-04-05T08:55:37.278Z,95.30
2019-04-05T08:58:07.103Z,94.90
2019-04-05T09:00:36.979Z,94.30
2019-04-05T09:03:07.095Z,94.50
2019-04-05T09:05:36.987Z,93.80
2019-04-05T09:08:30.740Z,93.60
2019-04-05T09:11:03.164Z,93.80
2019-04-05T09:13:33.038Z,93.90
2019-04-05T09:16:02.945Z,93.70
2019-04-05T09:22:05.124Z,94.00
2019-04-05T09:24:34.977Z,93.80
2019-04-05T09:27:04.747Z,93.10
2019-04-05T09:29:34.658Z,92.80
2019-04-05T09:35:48.613Z,92.20
2019-04-05T09:38:18.465Z,91.70
2019-04-05T09:40:48.490Z,91.60
2019-04-05T09:43:18.537Z,91.90
2019-04-05T09:45:48.450Z,91.40
2019-04-05T09:48:18.325Z,91.00
2019-04-05T09:50:48.249Z,91.20
2019-04-05T09:53:18.178Z,91.10
2019-04-05T09:55:47.967Z,91.50
2019-04-05T09:58:18.264Z,91.00
2019-04-05T10:00:48.243Z,90.30
2019-04-05T10:07:06.143Z,89.30
2019-04-05T10:09:35.959Z,90.30
2019-04-05T10:12:05.965Z,91.10
2019-04-05T10:14:35.737Z,91.10
2019-04-05T10:17:05.598Z,91.40
2019-04-05T10:19:58.611Z,91.30
2019-04-05T10:22:23.274Z,91.10
2019-04-05T10:24:53.224Z,90.80
2019-04-05T10:27:23.197Z,90.40
2019-04-05T10:29:58.746Z,91.00
2019-04-05T10:32:28.837Z,91.40
2019-04-05T10:34:58.769Z,91.30
2019-04-05T10:37:28.590Z,91.50
2019-04-05T10:39:58.546Z,91.30
2019-04-05T10:42:33.182Z,91.10
2019-04-05T10:45:03.784Z,90.20
2019-04-05T10:51:14.901Z,90.30
2019-04-05T10:53:45.966Z,88.60
2019-04-05T10:56:15.921Z,87.60
2019-04-05T10:58:45.736Z,87.50
2019-04-05T11:01:15.618Z,87.50
2019-04-05T11:03:45.492Z,87.30
2019-04-05T11:06:15.316Z,88.00
2019-04-05T11:08:45.141Z,87.30
2019-04-05T11:11:14.848Z,88.00
2019-04-05T11:13:44.763Z,87.40
2019-04-05T11:16:14.738Z,88.70
2019-04-05T11:18:45.190Z,88.70
2019-04-05T11:21:16.274Z,88.20
2019-04-05T11:23:46.881Z,88.30
2019-04-05T11:26:16.677Z,86.90
2019-04-05T11:28:46.415Z,86.90
2019-04-05T11:31:16.331Z,86.40
2019-04-05T11:33:46.284Z,86.40
2019-04-05T11:36:16.095Z,87.60
2019-04-05T11:38:49.897Z,88.30
2019-04-05T11:41:18.621Z,87.60
2019-04-05T11:43:49.641Z,87.70
2019-04-05T11:46:20.102Z,87.50
2019-04-05T11:48:50.285Z,86.90
2019-04-05T11:51:20.170Z,87.20
2019-04-05T11:53:50.416Z,87.30
2019-04-05T11:56:20.592Z,87.00
2019-04-05T11:58:51.758Z,86.80
2019-04-05T12:01:26.168Z,87.00
2019-04-05T12:03:56.138Z,88.30
2019-04-05T12:06:26.102Z,88.00
2019-04-05T12:08:56.130Z,87.50
2019-04-05T12:11:25.955Z,88.70
2019-04-05T12:13:55.849Z,88.10
2019-04-05T12:16:25.770Z,88.10
2019-04-05T12:18:55.525Z,87.40
2019-04-05T12:21:25.957Z,87.80
2019-04-05T12:23:55.873Z,88.00
2019-04-05T12:26:25.680Z,88.50
2019-04-05T12:28:55.596Z,86.90
2019-04-05T12:31:26.562Z,87.80
2019-04-05T12:33:56.426Z,88.10
2019-04-05T12:36:26.193Z,88.30
2019-04-05T12:38:56.045Z,87.60
2019-04-05T12:41:25.927Z,88.20
2019-04-05T12:43:55.859Z,88.20
2019-04-05T12:46:25.584Z,88.40
2019-04-05T12:48:55.448Z,89.00
2019-04-05T12:51:25.244Z,89.30
2019-04-05T12:53:56.787Z,89.30
2019-04-05T12:56:27.239Z,89.40
2019-04-05T12:58:57.613Z,89.50
2019-04-05T13:01:27.440Z,89.20
2019-04-05T13:07:29.607Z,87.90
2019-04-05T13:09:59.673Z,87.70
2019-04-05T13:12:29.576Z,87.60
2019-04-05T13:15:11.223Z,88.80
2019-04-05T13:17:31.289Z,89.20
2019-04-05T13:20:01.571Z,88.90
2019-04-05T13:22:33.021Z,87.90
2019-04-05T13:25:02.739Z,87.80
2019-04-05T13:27:32.483Z,88.40
2019-04-05T13:30:02.401Z,88.90
2019-04-05T13:32:33.976Z,88.40
2019-04-05T13:35:03.731Z,87.10
2019-04-05T13:37:33.431Z,88.00
2019-04-05T13:40:06.272Z,88.20
2019-04-05T13:42:35.493Z,87.40
2019-04-05T13:45:06.325Z,88.00
2019-04-05T13:47:38.942Z,88.30
2019-04-05T13:50:11.015Z,88.40
2019-04-05T13:52:42.163Z,88.30
2019-04-05T13:55:11.775Z,87.30
2019-04-05T13:57:41.535Z,88.30
2019-04-05T14:00:17.533Z,88.90
2019-04-05T14:06:14.079Z,88.80
2019-04-05T14:08:43.952Z,88.20
2019-04-05T14:11:13.821Z,88.10
2019-04-05T14:13:43.496Z,87.90
2019-04-05T14:16:13.255Z,88.10
2019-04-05T14:18:49.413Z,88.50
2019-04-05T14:21:14.529Z,88.20
2019-04-05T14:23:44.425Z,88.00
2019-04-05T14:26:14.239Z,87.60
2019-04-05T14:28:43.932Z,87.30
2019-04-05T14:31:13.831Z,86.90
2019-04-05T14:33:43.525Z,87.50
2019-04-05T14:36:13.368Z,87.60
2019-04-05T14:38:43.229Z,87.70
2019-04-05T14:41:13.029Z,87.70
2019-04-05T14:43:45.031Z,88.20
2019-04-05T14:46:14.293Z,88.30
2019-04-05T14:48:44.360Z,87.80
2019-04-05T14:51:14.154Z,88.00
2019-04-05T14:53:44.047Z,88.30
2019-04-05T14:56:13.917Z,88.40
2019-04-05T14:58:43.780Z,88.50
2019-04-05T15:01:15.511Z,88.30
2019-04-05T15:03:45.086Z,88.00
2019-04-05T15:06:14.941Z,87.00
2019-04-05T15:08:47.601Z,86.80
2019-04-05T15:11:16.832Z,86.50
2019-04-05T15:13:46.696Z,87.10
2019-04-05T15:16:16.433Z,86.90
2019-04-05T15:18:46.377Z,86.80
2019-04-05T15:21:16.089Z,86.50
2019-04-05T15:23:46.349Z,86.30
2019-04-05T15:26:16.490Z,85.60
2019-04-05T15:28:46.268Z,85.60
2019-04-05T15:31:16.135Z,85.80
2019-04-05T15:33:46.036Z,85.40
2019-04-05T15:36:15.810Z,85.00
2019-04-05T15:38:45.603Z,85.00
2019-04-05T15:41:15.388Z,84.10
2019-04-05T15:43:45.335Z,84.30
2019-04-05T15:46:15.158Z,84.90
2019-04-05T15:48:45.037Z,85.80
2019-04-05T15:51:14.948Z,85.30
2019-04-05T15:53:44.761Z,85.40
2019-04-05T15:56:14.624Z,85.60
2019-04-05T15:58:44.588Z,85.60
2019-04-05T16:01:14.460Z,85.80
2019-04-05T16:03:44.265Z,85.70
2019-04-05T16:06:14.202Z,85.40
2019-04-05T16:08:44.179Z,85.70
2019-04-05T16:11:14.047Z,86.10
2019-04-05T16:13:43.966Z,86.20
2019-04-05T16:16:13.730Z,86.30
2019-04-05T16:18:43.606Z,86.10
2019-04-05T16:21:13.459Z,85.80
2019-04-05T16:23:43.518Z,86.00
2019-04-05T16:26:13.378Z,86.30
2019-04-05T16:28:43.191Z,86.90
2019-04-05T16:31:13.122Z,87.00
2019-04-05T16:33:42.814Z,87.50
2019-04-05T16:36:13.026Z,88.00
2019-04-05T16:38:42.804Z,88.40
2019-04-05T16:41:12.635Z,88.40
2019-04-05T16:43:42.436Z,88.90
2019-04-05T16:46:12.362Z,89.00
2019-04-05T16:48:42.080Z,89.30
2019-04-05T16:51:11.926Z,89.60
2019-04-05T16:54:00.204Z,89.80
2019-04-05T16:56:30.158Z,90.00
2019-04-05T16:58:59.925Z,90.10
2019-04-05T17:01:30.099Z,90.10
2019-04-05T17:03:59.982Z,90.30
2019-04-05T17:06:30.023Z,90.40
2019-04-05T17:08:59.951Z,90.40
2019-04-05T17:11:29.945Z,90.50
2019-04-05T17:13:59.851Z,90.70
2019-04-05T17:16:30.100Z,90.90
2019-04-05T17:19:00.134Z,90.90
2019-04-05T17:21:30.003Z,91.00
2019-04-05T17:23:59.911Z,91.10
2019-04-05T17:26:30.130Z,91.20
2019-04-05T17:28:59.923Z,91.20
2019-04-05T17:32:01.183Z,91.30
2019-04-05T17:38:31.830Z,91.50
2019-04-05T17:41:01.672Z,91.40
2019-04-05T17:43:31.570Z,91.50
2019-04-05T17:46:01.826Z,91.60
2019-04-05T17:48:46.629Z,91.70
2019-04-05T17:51:26.795Z,91.80
2019-04-05T17:54:10.946Z,92.20
2019-04-05T17:56:46.135Z,91.90
2019-04-05T17:59:24.002Z,92.00
2019-04-05T18:01:53.846Z,92.10
2019-04-05T18:04:23.754Z,92.20
2019-04-05T18:06:53.516Z,92.20
2019-04-05T18:09:23.336Z,92.20
2019-04-05T18:11:53.295Z,92.30
2019-04-05T18:14:23.118Z,92.30
2019-04-05T18:16:52.946Z,92.40
2019-04-05T18:19:22.741Z,92.40
2019-04-05T18:21:52.615Z,92.60
2019-04-05T18:24:22.458Z,92.60
2019-04-05T18:26:52.306Z,92.80
2019-04-05T18:29:22.153Z,92.80
2019-04-05T18:31:52.012Z,92.90
2019-04-05T18:41:26.739Z,93.00
2019-04-05T18:43:56.770Z,93.20
2019-04-05T18:46:26.670Z,93.10
2019-04-05T18:48:56.498Z,93.20
2019-04-05T18:51:26.466Z,93.20
2019-04-05T18:53:56.438Z,93.30
2019-04-05T18:56:26.241Z,93.40
2019-04-05T18:58:56.155Z,93.40
2019-04-05T19:01:26.103Z,93.60
2019-04-05T19:03:56.201Z,93.70
2019-04-05T19:06:26.047Z,94.10
2019-04-05T19:08:56.013Z,94.20
2019-04-05T19:11:25.922Z,94.20
2019-04-05T19:14:01.415Z,94.30
2019-04-05T19:16:27.358Z,94.30
2019-04-05T19:18:57.349Z,94.30
2019-04-05T19:21:27.172Z,94.30
2019-04-05T19:23:57.405Z,94.30
2019-04-05T19:26:27.205Z,94.30
2019-04-05T19:28:57.481Z,94.40
2019-04-05T19:52:50.092Z,94.80
2019-04-05T19:55:20.137Z,94.80
2019-04-05T19:57:50.152Z,94.90
2019-04-05T20:00:26.155Z,95.00
2019-04-05T20:02:56.086Z,95.10
2019-04-05T20:05:26.031Z,95.10
2019-04-05T20:07:56.098Z,95.20
2019-04-05T20:10:43.137Z,95.20
2019-04-05T20:13:13.287Z,95.30
2019-04-05T20:15:43.243Z,95.40
2019-04-05T20:22:24.231Z,95.60
2019-04-05T20:24:54.723Z,95.80
2019-04-05T20:27:24.897Z,95.60
2019-04-05T20:29:54.869Z,95.50
2019-04-05T20:32:24.940Z,95.60
2019-04-05T20:34:55.196Z,95.60
2019-04-05T20:37:25.034Z,95.70
2019-04-05T20:39:54.891Z,95.70
2019-04-05T20:42:25.271Z,95.80
2019-04-05T20:44:55.278Z,95.90
2019-04-05T20:50:43.758Z,95.80
2019-04-05T20:53:13.700Z,96.00
2019-04-05T20:55:43.687Z,96.20
2019-04-05T20:58:13.705Z,96.10
2019-04-05T21:00:43.595Z,96.10
2019-04-05T21:09:48.426Z,96.30
2019-04-05T21:12:18.278Z,96.20
2019-04-05T21:14:48.320Z,96.20
2019-04-05T21:17:18.381Z,96.30
2019-04-05T21:19:48.229Z,96.30
2019-04-05T21:22:18.107Z,96.30
2019-04-05T21:24:48.073Z,96.40
2019-04-05T21:27:18.122Z,96.40
2019-04-05T21:29:47.958Z,96.50
2019-04-05T21:32:17.710Z,96.50
2019-04-05T21:34:47.575Z,96.50
2019-04-05T21:37:17.473Z,96.50
2019-04-05T21:39:47.319Z,96.50
2019-04-05T21:42:17.195Z,96.60
2019-04-05T21:44:47.451Z,96.60
2019-04-05T21:47:17.600Z,96.60
2019-04-05T21:49:47.799Z,96.70
2019-04-05T21:52:17.793Z,96.80
2019-04-05T21:54:48.046Z,96.70
2019-04-05T21:57:18.046Z,96.90
2019-04-05T21:59:48.141Z,97.00
2019-04-05T22:02:18.157Z,96.90
2019-04-05T22:04:48.241Z,97.10
2019-04-05T22:07:18.230Z,97.00
2019-04-05T22:09:48.160Z,97.00
2019-04-05T22:12:24.206Z,97.30
2019-04-05T22:14:54.434Z,97.30
2019-04-05T22:17:24.398Z,97.40
2019-04-05T22:19:55.692Z,97.50
2019-04-05T22:22:27.352Z,97.40
2019-04-05T22:24:59.583Z,97.30
2019-04-05T22:27:28.736Z,97.60
2019-04-05T22:29:58.796Z,97.60
2019-04-05T22:32:28.702Z,97.80
2019-04-05T22:34:58.794Z,97.90
2019-04-05T22:37:28.718Z,98.10
2019-04-05T22:39:58.674Z,97.80
2019-04-05T22:42:28.566Z,97.90
2019-04-05T22:44:58.527Z,98.00
2019-04-05T22:47:28.456Z,98.10
2019-04-05T22:53:30.870Z,97.90
2019-04-05T22:56:00.780Z,97.90
2019-04-05T22:58:30.691Z,98.20
2019-04-05T23:01:00.738Z,97.90
2019-04-05T23:03:30.609Z,98.00
2019-04-05T23:06:00.522Z,98.10
2019-04-05T23:08:30.568Z,98.00
2019-04-05T23:11:00.474Z,98.10
2019-04-05T23:13:30.510Z,98.10
2019-04-05T23:16:00.329Z,98.20
2019-04-05T23:18:30.408Z,98.20
2019-04-05T23:21:00.358Z,98.20
2019-04-05T23:23:30.393Z,98.30
2019-04-05T23:26:00.274Z,98.40
2019-04-05T23:28:30.125Z,98.30
2019-04-05T23:31:00.337Z,98.30
2019-04-05T23:33:30.086Z,98.50
2019-04-05T23:36:00.122Z,98.50
2019-04-05T23:38:29.980Z,98.40
2019-04-05T23:40:59.941Z,98.40
2019-04-05T23:43:29.742Z,98.40
2019-04-05T23:45:59.682Z,98.50
2019-04-05T23:48:29.534Z,98.50
2019-04-05T23:50:59.473Z,98.50
2019-04-05T23:53:29.556Z,98.50
2019-04-05T23:55:59.441Z,98.50
2019-04-05T23:58:29.363Z,98.50
